sensor_id;sensor_type;location;lat;lon;timestamp;P1;durP1;ratioP1;P2;durP2;ratioP2
5811;SDS011;2932;52.400;9.558;2023-02-28T00:00:32;6.87;;;4.93;;
5811;SDS011;2932;52.400;9.558;2023-02-28T00:02:59;6.40;;;4.07;;
5811;SDS011;2932;52.400;9.558;2023-02-28T00:05:25;4.87;;;3.97;;
5811;SDS011;2932;52.400;9.558;2023-02-28T00:07:51;7.53;;;4.37;;
5811;SDS011;2932;52.400;9.558;2023-02-28T00:10:18;6.00;;;3.77;;
5811;SDS011;2932;52.400;9.558;2023-02-28T00:12:48;6.07;;;4.00;;
5811;SDS011;2932;52.400;9.558;2023-02-28T00:15:15;7.80;;;4.47;;
5811;SDS011;2932;52.400;9.558;2023-02-28T00:17:40;6.83;;;5.27;;
5811;SDS011;2932;52.400;9.558;2023-02-28T00:20:06;7.33;;;4.10;;
5811;SDS011;2932;52.400;9.558;2023-02-28T00:22:40;7.07;;;4.43;;
5811;SDS011;2932;52.400;9.558;2023-02-28T00:25:07;7.23;;;4.17;;
5811;SDS011;2932;52.400;9.558;2023-02-28T00:27:35;6.00;;;4.50;;
5811;SDS011;2932;52.400;9.558;2023-02-28T00:30:02;8.57;;;4.67;;
5811;SDS011;2932;52.400;9.558;2023-02-28T00:32:28;6.30;;;4.20;;
5811;SDS011;2932;52.400;9.558;2023-02-28T00:34:54;6.93;;;4.07;;
5811;SDS011;2932;52.400;9.558;2023-02-28T00:37:20;7.07;;;4.13;;
5811;SDS011;2932;52.400;9.558;2023-02-28T00:39:45;7.33;;;4.50;;
5811;SDS011;2932;52.400;9.558;2023-02-28T00:42:10;6.37;;;4.10;;
5811;SDS011;2932;52.400;9.558;2023-02-28T00:44:36;6.50;;;3.60;;
5811;SDS011;2932;52.400;9.558;2023-02-28T00:47:01;9.37;;;3.93;;
5811;SDS011;2932;52.400;9.558;2023-02-28T00:49:27;5.10;;;3.93;;
5811;SDS011;2932;52.400;9.558;2023-02-28T00:51:53;6.47;;;3.83;;
5811;SDS011;2932;52.400;9.558;2023-02-28T00:54:21;6.63;;;3.77;;
5811;SDS011;2932;52.400;9.558;2023-02-28T00:56:47;4.80;;;3.80;;
5811;SDS011;2932;52.400;9.558;2023-02-28T00:59:13;7.57;;;4.27;;
5811;SDS011;2932;52.400;9.558;2023-02-28T01:01:40;8.47;;;4.47;;
5811;SDS011;2932;52.400;9.558;2023-02-28T01:04:06;7.93;;;3.67;;
5811;SDS011;2932;52.400;9.558;2023-02-28T01:06:32;6.07;;;3.53;;
5811;SDS011;2932;52.400;9.558;2023-02-28T01:08:57;5.07;;;3.67;;
5811;SDS011;2932;52.400;9.558;2023-02-28T01:11:24;4.50;;;3.70;;
5811;SDS011;2932;52.400;9.558;2023-02-28T01:13:49;5.73;;;3.97;;
5811;SDS011;2932;52.400;9.558;2023-02-28T01:16:15;8.13;;;3.80;;
5811;SDS011;2932;52.400;9.558;2023-02-28T01:18:41;7.53;;;4.30;;
5811;SDS011;2932;52.400;9.558;2023-02-28T01:21:07;4.87;;;3.97;;
5811;SDS011;2932;52.400;9.558;2023-02-28T01:23:35;5.77;;;3.60;;
5811;SDS011;2932;52.400;9.558;2023-02-28T01:26:07;7.73;;;3.77;;
5811;SDS011;2932;52.400;9.558;2023-02-28T01:28:35;6.50;;;4.00;;
5811;SDS011;2932;52.400;9.558;2023-02-28T01:31:01;7.27;;;4.23;;
5811;SDS011;2932;52.400;9.558;2023-02-28T01:33:26;5.87;;;3.90;;
5811;SDS011;2932;52.400;9.558;2023-02-28T01:35:59;5.77;;;4.43;;
5811;SDS011;2932;52.400;9.558;2023-02-28T01:38:25;8.57;;;4.33;;
5811;SDS011;2932;52.400;9.558;2023-02-28T01:40:51;8.07;;;4.30;;
5811;SDS011;2932;52.400;9.558;2023-02-28T01:43:20;8.23;;;4.13;;
5811;SDS011;2932;52.400;9.558;2023-02-28T01:45:48;6.90;;;4.10;;
5811;SDS011;2932;52.400;9.558;2023-02-28T01:48:13;5.27;;;3.87;;
5811;SDS011;2932;52.400;9.558;2023-02-28T01:50:41;4.73;;;3.70;;
5811;SDS011;2932;52.400;9.558;2023-02-28T01:53:10;7.07;;;3.47;;
5811;SDS011;2932;52.400;9.558;2023-02-28T01:55:40;5.53;;;4.17;;
5811;SDS011;2932;52.400;9.558;2023-02-28T01:58:07;5.97;;;3.73;;
5811;SDS011;2932;52.400;9.558;2023-02-28T02:00:34;5.83;;;3.87;;
5811;SDS011;2932;52.400;9.558;2023-02-28T02:03:01;6.63;;;4.10;;
5811;SDS011;2932;52.400;9.558;2023-02-28T02:05:32;5.50;;;3.77;;
5811;SDS011;2932;52.400;9.558;2023-02-28T02:08:03;4.93;;;3.80;;
5811;SDS011;2932;52.400;9.558;2023-02-28T02:10:34;6.40;;;4.00;;
5811;SDS011;2932;52.400;9.558;2023-02-28T02:40:44;5.90;;;4.07;;
5811;SDS011;2932;52.400;9.558;2023-02-28T02:43:19;6.17;;;3.73;;
5811;SDS011;2932;52.400;9.558;2023-02-28T02:45:58;10.53;;;4.27;;
5811;SDS011;2932;52.400;9.558;2023-02-28T02:48:29;5.43;;;3.77;;
5811;SDS011;2932;52.400;9.558;2023-02-28T02:50:59;6.83;;;3.90;;
5811;SDS011;2932;52.400;9.558;2023-02-28T02:53:32;6.67;;;4.00;;
5811;SDS011;2932;52.400;9.558;2023-02-28T02:56:01;7.37;;;4.07;;
5811;SDS011;2932;52.400;9.558;2023-02-28T02:58:34;6.93;;;4.20;;
5811;SDS011;2932;52.400;9.558;2023-02-28T03:01:07;5.97;;;3.77;;
5811;SDS011;2932;52.400;9.558;2023-02-28T03:03:37;6.50;;;4.17;;
5811;SDS011;2932;52.400;9.558;2023-02-28T03:06:03;8.07;;;4.77;;
5811;SDS011;2932;52.400;9.558;2023-02-28T03:08:34;10.53;;;4.93;;
5811;SDS011;2932;52.400;9.558;2023-02-28T03:11:04;9.67;;;5.07;;
5811;SDS011;2932;52.400;9.558;2023-02-28T03:13:43;11.23;;;5.50;;
5811;SDS011;2932;52.400;9.558;2023-02-28T03:16:29;13.83;;;6.50;;
5811;SDS011;2932;52.400;9.558;2023-02-28T03:29:04;5.93;;;3.90;;
5811;SDS011;2932;52.400;9.558;2023-02-28T03:31:27;6.40;;;4.33;;
5811;SDS011;2932;52.400;9.558;2023-02-28T03:34:00;9.00;;;4.20;;
5811;SDS011;2932;52.400;9.558;2023-02-28T03:36:35;7.20;;;3.90;;
5811;SDS011;2932;52.400;9.558;2023-02-28T03:39:08;8.50;;;3.87;;
5811;SDS011;2932;52.400;9.558;2023-02-28T03:41:55;5.23;;;3.67;;
5811;SDS011;2932;52.400;9.558;2023-02-28T03:44:26;5.37;;;3.80;;
5811;SDS011;2932;52.400;9.558;2023-02-28T03:47:00;7.37;;;3.87;;
5811;SDS011;2932;52.400;9.558;2023-02-28T03:49:32;6.27;;;3.90;;
5811;SDS011;2932;52.400;9.558;2023-02-28T03:52:08;7.53;;;4.20;;
5811;SDS011;2932;52.400;9.558;2023-02-28T03:54:35;7.17;;;4.33;;
5811;SDS011;2932;52.400;9.558;2023-02-28T03:57:16;8.63;;;4.10;;
5811;SDS011;2932;52.400;9.558;2023-02-28T03:59:49;8.00;;;4.13;;
5811;SDS011;2932;52.400;9.558;2023-02-28T04:02:24;11.80;;;4.43;;
5811;SDS011;2932;52.400;9.558;2023-02-28T04:04:50;5.27;;;4.07;;
5811;SDS011;2932;52.400;9.558;2023-02-28T04:07:16;7.80;;;4.17;;
5811;SDS011;2932;52.400;9.558;2023-02-28T04:09:42;6.50;;;4.10;;
5811;SDS011;2932;52.400;9.558;2023-02-28T04:12:08;8.57;;;4.10;;
5811;SDS011;2932;52.400;9.558;2023-02-28T04:14:33;8.50;;;4.87;;
5811;SDS011;2932;52.400;9.558;2023-02-28T04:16:59;9.40;;;6.13;;
5811;SDS011;2932;52.400;9.558;2023-02-28T04:19:24;5.90;;;4.13;;
5811;SDS011;2932;52.400;9.558;2023-02-28T04:21:51;6.87;;;4.30;;
5811;SDS011;2932;52.400;9.558;2023-02-28T04:24:21;7.17;;;4.00;;
5811;SDS011;2932;52.400;9.558;2023-02-28T04:26:49;8.33;;;4.93;;
5811;SDS011;2932;52.400;9.558;2023-02-28T04:29:20;9.47;;;4.63;;
5811;SDS011;2932;52.400;9.558;2023-02-28T04:31:48;7.50;;;4.00;;
5811;SDS011;2932;52.400;9.558;2023-02-28T04:34:13;6.97;;;4.70;;
5811;SDS011;2932;52.400;9.558;2023-02-28T04:36:39;6.77;;;4.40;;
5811;SDS011;2932;52.400;9.558;2023-02-28T04:39:05;6.60;;;4.70;;
5811;SDS011;2932;52.400;9.558;2023-02-28T04:41:31;8.00;;;4.20;;
5811;SDS011;2932;52.400;9.558;2023-02-28T04:43:56;6.57;;;3.97;;
5811;SDS011;2932;52.400;9.558;2023-02-28T04:46:22;7.00;;;4.60;;
5811;SDS011;2932;52.400;9.558;2023-02-28T04:48:47;9.33;;;4.80;;
5811;SDS011;2932;52.400;9.558;2023-02-28T04:51:14;6.20;;;4.10;;
5811;SDS011;2932;52.400;9.558;2023-02-28T04:53:41;6.67;;;4.20;;
5811;SDS011;2932;52.400;9.558;2023-02-28T04:56:07;9.63;;;4.03;;
5811;SDS011;2932;52.400;9.558;2023-02-28T04:58:35;5.43;;;4.13;;
5811;SDS011;2932;52.400;9.558;2023-02-28T05:01:01;9.23;;;4.70;;
5811;SDS011;2932;52.400;9.558;2023-02-28T05:03:28;7.20;;;4.17;;
5811;SDS011;2932;52.400;9.558;2023-02-28T05:05:53;6.80;;;4.20;;
5811;SDS011;2932;52.400;9.558;2023-02-28T05:08:20;6.10;;;4.23;;
5811;SDS011;2932;52.400;9.558;2023-02-28T05:10:45;11.80;;;4.13;;
5811;SDS011;2932;52.400;9.558;2023-02-28T05:13:13;10.57;;;4.67;;
5811;SDS011;2932;52.400;9.558;2023-02-28T05:15:39;9.23;;;4.63;;
5811;SDS011;2932;52.400;9.558;2023-02-28T05:18:04;7.30;;;4.10;;
5811;SDS011;2932;52.400;9.558;2023-02-28T05:20:30;8.20;;;4.63;;
5811;SDS011;2932;52.400;9.558;2023-02-28T05:22:56;6.83;;;4.83;;
5811;SDS011;2932;52.400;9.558;2023-02-28T05:25:23;7.20;;;4.50;;
5811;SDS011;2932;52.400;9.558;2023-02-28T05:27:48;6.70;;;4.47;;
5811;SDS011;2932;52.400;9.558;2023-02-28T05:30:14;6.63;;;4.30;;
5811;SDS011;2932;52.400;9.558;2023-02-28T05:32:40;6.80;;;3.90;;
5811;SDS011;2932;52.400;9.558;2023-02-28T05:35:11;6.67;;;3.67;;
5811;SDS011;2932;52.400;9.558;2023-02-28T05:37:37;7.67;;;4.50;;
5811;SDS011;2932;52.400;9.558;2023-02-28T05:40:04;5.77;;;4.00;;
5811;SDS011;2932;52.400;9.558;2023-02-28T05:42:36;8.97;;;4.60;;
5811;SDS011;2932;52.400;9.558;2023-02-28T05:45:03;10.67;;;4.20;;
5811;SDS011;2932;52.400;9.558;2023-02-28T05:47:29;5.73;;;3.87;;
5811;SDS011;2932;52.400;9.558;2023-02-28T05:49:55;8.80;;;3.87;;
5811;SDS011;2932;52.400;9.558;2023-02-28T05:52:20;7.60;;;4.43;;
5811;SDS011;2932;52.400;9.558;2023-02-28T05:54:46;9.03;;;4.30;;
5811;SDS011;2932;52.400;9.558;2023-02-28T05:57:11;5.90;;;4.43;;
5811;SDS011;2932;52.400;9.558;2023-02-28T05:59:37;5.73;;;4.07;;
5811;SDS011;2932;52.400;9.558;2023-02-28T06:02:04;6.07;;;4.50;;
5811;SDS011;2932;52.400;9.558;2023-02-28T06:04:37;9.93;;;4.10;;
5811;SDS011;2932;52.400;9.558;2023-02-28T06:07:03;5.50;;;3.87;;
5811;SDS011;2932;52.400;9.558;2023-02-28T06:09:28;6.63;;;3.77;;
5811;SDS011;2932;52.400;9.558;2023-02-28T06:11:54;5.90;;;3.77;;
5811;SDS011;2932;52.400;9.558;2023-02-28T06:14:20;5.93;;;4.13;;
5811;SDS011;2932;52.400;9.558;2023-02-28T06:16:46;9.43;;;4.67;;
5811;SDS011;2932;52.400;9.558;2023-02-28T06:19:12;11.17;;;4.43;;
5811;SDS011;2932;52.400;9.558;2023-02-28T06:21:37;6.10;;;4.70;;
5811;SDS011;2932;52.400;9.558;2023-02-28T06:24:03;7.57;;;4.23;;
5811;SDS011;2932;52.400;9.558;2023-02-28T06:26:29;6.40;;;3.97;;
5811;SDS011;2932;52.400;9.558;2023-02-28T06:28:55;13.70;;;10.03;;
5811;SDS011;2932;52.400;9.558;2023-02-28T06:31:21;6.77;;;4.53;;
5811;SDS011;2932;52.400;9.558;2023-02-28T06:33:48;6.57;;;4.10;;
5811;SDS011;2932;52.400;9.558;2023-02-28T06:36:14;8.13;;;4.17;;
5811;SDS011;2932;52.400;9.558;2023-02-28T06:38:41;6.80;;;3.73;;
5811;SDS011;2932;52.400;9.558;2023-02-28T06:41:06;7.07;;;3.67;;
5811;SDS011;2932;52.400;9.558;2023-02-28T06:43:34;5.60;;;3.93;;
5811;SDS011;2932;52.400;9.558;2023-02-28T06:46:03;6.07;;;4.17;;
5811;SDS011;2932;52.400;9.558;2023-02-28T06:48:31;4.93;;;3.90;;
5811;SDS011;2932;52.400;9.558;2023-02-28T06:51:07;5.80;;;3.93;;
5811;SDS011;2932;52.400;9.558;2023-02-28T06:53:40;7.20;;;3.73;;
5811;SDS011;2932;52.400;9.558;2023-02-28T06:56:06;7.67;;;4.20;;
5811;SDS011;2932;52.400;9.558;2023-02-28T06:58:34;7.47;;;4.27;;
5811;SDS011;2932;52.400;9.558;2023-02-28T07:01:00;6.37;;;4.93;;
5811;SDS011;2932;52.400;9.558;2023-02-28T07:03:26;5.40;;;3.57;;
5811;SDS011;2932;52.400;9.558;2023-02-28T07:05:51;7.07;;;3.90;;
5811;SDS011;2932;52.400;9.558;2023-02-28T07:08:17;8.50;;;4.20;;
5811;SDS011;2932;52.400;9.558;2023-02-28T07:10:42;6.90;;;4.10;;
5811;SDS011;2932;52.400;9.558;2023-02-28T07:13:08;4.20;;;3.80;;
5811;SDS011;2932;52.400;9.558;2023-02-28T07:15:37;6.33;;;4.10;;
5811;SDS011;2932;52.400;9.558;2023-02-28T07:18:03;9.30;;;4.23;;
5811;SDS011;2932;52.400;9.558;2023-02-28T07:20:29;7.43;;;4.50;;
5811;SDS011;2932;52.400;9.558;2023-02-28T07:22:55;8.90;;;4.27;;
5811;SDS011;2932;52.400;9.558;2023-02-28T07:25:28;9.23;;;4.70;;
5811;SDS011;2932;52.400;9.558;2023-02-28T07:27:54;10.63;;;4.90;;
5811;SDS011;2932;52.400;9.558;2023-02-28T07:30:20;7.83;;;4.83;;
5811;SDS011;2932;52.400;9.558;2023-02-28T07:32:46;10.07;;;5.40;;
5811;SDS011;2932;52.400;9.558;2023-02-28T07:35:11;9.47;;;4.90;;
5811;SDS011;2932;52.400;9.558;2023-02-28T07:37:37;7.03;;;4.33;;
5811;SDS011;2932;52.400;9.558;2023-02-28T07:40:06;6.93;;;4.73;;
5811;SDS011;2932;52.400;9.558;2023-02-28T07:42:39;7.87;;;5.00;;
5811;SDS011;2932;52.400;9.558;2023-02-28T07:45:05;7.13;;;4.77;;
5811;SDS011;2932;52.400;9.558;2023-02-28T07:47:31;8.20;;;4.03;;
5811;SDS011;2932;52.400;9.558;2023-02-28T07:49:57;6.50;;;4.37;;
5811;SDS011;2932;52.400;9.558;2023-02-28T07:52:22;5.87;;;3.50;;
5811;SDS011;2932;52.400;9.558;2023-02-28T07:54:48;8.27;;;4.00;;
5811;SDS011;2932;52.400;9.558;2023-02-28T07:57:16;6.37;;;3.60;;
5811;SDS011;2932;52.400;9.558;2023-02-28T07:59:42;4.93;;;3.60;;
5811;SDS011;2932;52.400;9.558;2023-02-28T08:02:12;6.50;;;4.10;;
5811;SDS011;2932;52.400;9.558;2023-02-28T08:04:39;7.83;;;4.60;;
5811;SDS011;2932;52.400;9.558;2023-02-28T08:07:04;6.83;;;3.70;;
5811;SDS011;2932;52.400;9.558;2023-02-28T08:09:29;5.60;;;3.87;;
5811;SDS011;2932;52.400;9.558;2023-02-28T08:11:55;6.73;;;4.23;;
5811;SDS011;2932;52.400;9.558;2023-02-28T08:14:20;6.50;;;4.43;;
5811;SDS011;2932;52.400;9.558;2023-02-28T08:16:46;8.13;;;4.27;;
5811;SDS011;2932;52.400;9.558;2023-02-28T08:19:11;7.77;;;4.97;;
5811;SDS011;2932;52.400;9.558;2023-02-28T08:21:36;10.50;;;5.27;;
5811;SDS011;2932;52.400;9.558;2023-02-28T08:24:02;10.10;;;5.90;;
5811;SDS011;2932;52.400;9.558;2023-02-28T08:26:27;10.67;;;5.97;;
5811;SDS011;2932;52.400;9.558;2023-02-28T08:28:52;12.27;;;6.97;;
5811;SDS011;2932;52.400;9.558;2023-02-28T08:31:18;10.83;;;5.57;;
5811;SDS011;2932;52.400;9.558;2023-02-28T08:33:44;9.87;;;4.37;;
5811;SDS011;2932;52.400;9.558;2023-02-28T08:36:10;8.13;;;5.20;;
5811;SDS011;2932;52.400;9.558;2023-02-28T08:38:36;6.80;;;4.57;;
5811;SDS011;2932;52.400;9.558;2023-02-28T08:41:06;9.03;;;5.07;;
5811;SDS011;2932;52.400;9.558;2023-02-28T08:43:34;7.10;;;3.67;;
5811;SDS011;2932;52.400;9.558;2023-02-28T08:46:00;7.30;;;4.00;;
5811;SDS011;2932;52.400;9.558;2023-02-28T08:48:27;8.37;;;4.33;;
5811;SDS011;2932;52.400;9.558;2023-02-28T08:50:57;8.20;;;4.27;;
5811;SDS011;2932;52.400;9.558;2023-02-28T08:53:24;6.83;;;4.10;;
5811;SDS011;2932;52.400;9.558;2023-02-28T08:55:57;9.10;;;4.33;;
5811;SDS011;2932;52.400;9.558;2023-02-28T08:58:26;6.47;;;4.07;;
5811;SDS011;2932;52.400;9.558;2023-02-28T09:00:51;5.20;;;3.83;;
5811;SDS011;2932;52.400;9.558;2023-02-28T09:03:17;7.67;;;4.40;;
5811;SDS011;2932;52.400;9.558;2023-02-28T09:05:55;11.03;;;4.47;;
5811;SDS011;2932;52.400;9.558;2023-02-28T09:08:23;12.63;;;6.40;;
5811;SDS011;2932;52.400;9.558;2023-02-28T09:39:13;3.07;;;1.63;;
5811;SDS011;2932;52.400;9.558;2023-02-28T09:45:30;3.20;;;1.90;;
5811;SDS011;2932;52.400;9.558;2023-02-28T09:48:22;4.13;;;2.10;;
5811;SDS011;2932;52.400;9.558;2023-02-28T11:09:03;2.70;;;1.60;;
5811;SDS011;2932;52.400;9.558;2023-02-28T11:29:47;1.30;;;0.90;;
5811;SDS011;2932;52.400;9.558;2023-02-28T11:32:34;2.87;;;1.20;;
5811;SDS011;2932;52.400;9.558;2023-02-28T11:35:31;3.10;;;1.33;;
5811;SDS011;2932;52.400;9.558;2023-02-28T11:38:00;2.27;;;1.00;;
5811;SDS011;2932;52.400;9.558;2023-02-28T11:40:30;1.67;;;1.00;;
5811;SDS011;2932;52.400;9.558;2023-02-28T11:45:40;2.28;;;1.23;;
5811;SDS011;2932;52.400;9.558;2023-02-28T11:49:10;1.60;;;0.90;;
5811;SDS011;2932;52.400;9.558;2023-02-28T11:51:41;1.75;;;1.00;;
5811;SDS011;2932;52.400;9.558;2023-02-28T12:02:25;1.92;;;1.08;;
5811;SDS011;2932;52.400;9.558;2023-02-28T12:07:50;2.15;;;1.40;;
5811;SDS011;2932;52.400;9.558;2023-02-28T12:10:35;0.88;;;0.80;;
5811;SDS011;2932;52.400;9.558;2023-02-28T12:13:16;1.20;;;0.95;;
5811;SDS011;2932;52.400;9.558;2023-02-28T12:15:52;1.42;;;1.10;;
5811;SDS011;2932;52.400;9.558;2023-02-28T12:21:20;1.20;;;1.10;;
5811;SDS011;2932;52.400;9.558;2023-02-28T12:23:55;1.00;;;0.90;;
5811;SDS011;2932;52.400;9.558;2023-02-28T12:26:38;1.30;;;1.02;;
5811;SDS011;2932;52.400;9.558;2023-02-28T12:34:57;1.52;;;0.90;;
5811;SDS011;2932;52.400;9.558;2023-02-28T12:37:37;1.30;;;0.98;;
5811;SDS011;2932;52.400;9.558;2023-02-28T12:40:11;2.95;;;1.08;;
5811;SDS011;2932;52.400;9.558;2023-02-28T12:42:46;2.22;;;1.02;;
5811;SDS011;2932;52.400;9.558;2023-02-28T12:45:23;1.25;;;1.00;;
5811;SDS011;2932;52.400;9.558;2023-02-28T12:47:52;3.58;;;0.88;;
5811;SDS011;2932;52.400;9.558;2023-02-28T12:50:23;1.75;;;1.10;;
5811;SDS011;2932;52.400;9.558;2023-02-28T12:52:59;1.85;;;1.00;;
5811;SDS011;2932;52.400;9.558;2023-02-28T12:55:35;1.65;;;1.10;;
5811;SDS011;2932;52.400;9.558;2023-02-28T12:58:10;1.98;;;1.40;;
5811;SDS011;2932;52.400;9.558;2023-02-28T13:00:49;2.85;;;1.80;;
5811;SDS011;2932;52.400;9.558;2023-02-28T13:03:44;2.47;;;1.30;;
5811;SDS011;2932;52.400;9.558;2023-02-28T13:09:10;1.67;;;1.35;;
5811;SDS011;2932;52.400;9.558;2023-02-28T13:11:40;1.75;;;1.17;;
5811;SDS011;2932;52.400;9.558;2023-02-28T13:17:33;1.25;;;1.05;;
5811;SDS011;2932;52.400;9.558;2023-02-28T13:19:41;1.67;;;1.20;;
5811;SDS011;2932;52.400;9.558;2023-02-28T13:23:14;3.25;;;1.58;;
5811;SDS011;2932;52.400;9.558;2023-02-28T13:27:48;1.77;;;1.25;;
5811;SDS011;2932;52.400;9.558;2023-02-28T13:38:33;1.88;;;1.20;;
5811;SDS011;2932;52.400;9.558;2023-02-28T13:47:19;4.82;;;1.42;;
5811;SDS011;2932;52.400;9.558;2023-02-28T14:11:39;2.72;;;1.65;;
5811;SDS011;2932;52.400;9.558;2023-02-28T14:14:07;2.17;;;1.88;;
5811;SDS011;2932;52.400;9.558;2023-02-28T14:16:41;1.88;;;1.60;;
5811;SDS011;2932;52.400;9.558;2023-02-28T14:19:19;1.65;;;1.38;;
5811;SDS011;2932;52.400;9.558;2023-02-28T14:29:50;3.10;;;1.80;;
5811;SDS011;2932;52.400;9.558;2023-02-28T14:35:35;3.55;;;1.20;;
5811;SDS011;2932;52.400;9.558;2023-02-28T14:38:19;2.00;;;1.60;;
5811;SDS011;2932;52.400;9.558;2023-02-28T14:40:51;1.83;;;1.38;;
5811;SDS011;2932;52.400;9.558;2023-02-28T14:43:25;2.08;;;1.50;;
5811;SDS011;2932;52.400;9.558;2023-02-28T14:45:54;1.67;;;1.33;;
5811;SDS011;2932;52.400;9.558;2023-02-28T14:48:21;2.88;;;1.50;;
5811;SDS011;2932;52.400;9.558;2023-02-28T14:50:49;3.13;;;1.60;;
5811;SDS011;2932;52.400;9.558;2023-02-28T14:53:18;2.63;;;1.50;;
5811;SDS011;2932;52.400;9.558;2023-02-28T14:55:46;3.95;;;1.80;;
5811;SDS011;2932;52.400;9.558;2023-02-28T14:58:20;1.75;;;1.65;;
5811;SDS011;2932;52.400;9.558;2023-02-28T15:00:55;1.85;;;1.45;;
5811;SDS011;2932;52.400;9.558;2023-02-28T15:03:35;2.30;;;1.50;;
5811;SDS011;2932;52.400;9.558;2023-02-28T15:06:03;1.60;;;1.45;;
5811;SDS011;2932;52.400;9.558;2023-02-28T15:08:31;2.70;;;1.70;;
5811;SDS011;2932;52.400;9.558;2023-02-28T15:11:04;1.80;;;1.60;;
5811;SDS011;2932;52.400;9.558;2023-02-28T15:16:03;1.80;;;1.60;;
5811;SDS011;2932;52.400;9.558;2023-02-28T15:21:07;2.65;;;1.50;;
5811;SDS011;2932;52.400;9.558;2023-02-28T15:23:37;2.40;;;1.50;;
5811;SDS011;2932;52.400;9.558;2023-02-28T15:26:06;2.58;;;1.52;;
5811;SDS011;2932;52.400;9.558;2023-02-28T15:28:32;2.05;;;1.77;;
5811;SDS011;2932;52.400;9.558;2023-02-28T15:31:02;1.42;;;1.33;;
5811;SDS011;2932;52.400;9.558;2023-02-28T15:33:57;4.53;;;1.55;;
5811;SDS011;2932;52.400;9.558;2023-02-28T15:36:32;2.90;;;1.75;;
5811;SDS011;2932;52.400;9.558;2023-02-28T15:39:02;2.83;;;1.48;;
5811;SDS011;2932;52.400;9.558;2023-02-28T15:41:43;2.15;;;1.50;;
5811;SDS011;2932;52.400;9.558;2023-02-28T15:46:41;2.10;;;1.60;;
5811;SDS011;2932;52.400;9.558;2023-02-28T15:49:17;2.25;;;1.60;;
5811;SDS011;2932;52.400;9.558;2023-02-28T15:51:45;2.83;;;1.80;;
5811;SDS011;2932;52.400;9.558;2023-02-28T15:54:15;2.13;;;1.30;;
5811;SDS011;2932;52.400;9.558;2023-02-28T15:56:55;2.25;;;1.40;;
5811;SDS011;2932;52.400;9.558;2023-02-28T15:59:26;3.28;;;1.25;;
5811;SDS011;2932;52.400;9.558;2023-02-28T16:04:34;3.70;;;1.60;;
5811;SDS011;2932;52.400;9.558;2023-02-28T16:07:04;2.72;;;1.67;;
5811;SDS011;2932;52.400;9.558;2023-02-28T16:09:30;1.65;;;1.50;;
5811;SDS011;2932;52.400;9.558;2023-02-28T16:11:58;3.45;;;1.40;;
5811;SDS011;2932;52.400;9.558;2023-02-28T16:14:27;2.15;;;1.48;;
5811;SDS011;2932;52.400;9.558;2023-02-28T16:16:56;2.65;;;1.48;;
5811;SDS011;2932;52.400;9.558;2023-02-28T16:19:27;2.33;;;1.75;;
5811;SDS011;2932;52.400;9.558;2023-02-28T16:21:52;4.20;;;1.45;;
5811;SDS011;2932;52.400;9.558;2023-02-28T16:24:17;2.13;;;1.48;;
5811;SDS011;2932;52.400;9.558;2023-02-28T16:26:45;2.42;;;1.65;;
5811;SDS011;2932;52.400;9.558;2023-02-28T16:29:18;2.63;;;1.90;;
5811;SDS011;2932;52.400;9.558;2023-02-28T16:31:54;2.97;;;2.10;;
5811;SDS011;2932;52.400;9.558;2023-02-28T16:34:20;3.75;;;2.35;;
5811;SDS011;2932;52.400;9.558;2023-02-28T16:36:47;3.47;;;2.95;;
5811;SDS011;2932;52.400;9.558;2023-02-28T16:39:13;4.22;;;2.50;;
5811;SDS011;2932;52.400;9.558;2023-02-28T16:41:39;2.60;;;1.80;;
5811;SDS011;2932;52.400;9.558;2023-02-28T16:44:09;2.70;;;2.00;;
5811;SDS011;2932;52.400;9.558;2023-02-28T16:46:38;3.28;;;1.85;;
5811;SDS011;2932;52.400;9.558;2023-02-28T16:49:03;2.28;;;1.90;;
5811;SDS011;2932;52.400;9.558;2023-02-28T16:51:28;4.43;;;2.50;;
5811;SDS011;2932;52.400;9.558;2023-02-28T16:53:53;3.13;;;2.07;;
5811;SDS011;2932;52.400;9.558;2023-02-28T16:56:20;3.70;;;2.23;;
5811;SDS011;2932;52.400;9.558;2023-02-28T16:58:48;2.77;;;2.00;;
5811;SDS011;2932;52.400;9.558;2023-02-28T17:01:14;4.07;;;2.20;;
5811;SDS011;2932;52.400;9.558;2023-02-28T17:03:40;4.23;;;2.23;;
5811;SDS011;2932;52.400;9.558;2023-02-28T17:06:06;6.07;;;2.73;;
5811;SDS011;2932;52.400;9.558;2023-02-28T17:08:39;3.70;;;2.20;;
5811;SDS011;2932;52.400;9.558;2023-02-28T17:11:04;4.47;;;2.27;;
5811;SDS011;2932;52.400;9.558;2023-02-28T17:13:29;3.87;;;2.10;;
5811;SDS011;2932;52.400;9.558;2023-02-28T17:15:55;2.63;;;1.80;;
5811;SDS011;2932;52.400;9.558;2023-02-28T17:18:20;2.30;;;1.80;;
5811;SDS011;2932;52.400;9.558;2023-02-28T17:20:46;2.20;;;1.80;;
5811;SDS011;2932;52.400;9.558;2023-02-28T17:23:12;5.47;;;2.57;;
5811;SDS011;2932;52.400;9.558;2023-02-28T17:25:37;3.30;;;2.10;;
5811;SDS011;2932;52.400;9.558;2023-02-28T17:28:03;3.07;;;1.93;;
5811;SDS011;2932;52.400;9.558;2023-02-28T17:30:28;3.20;;;1.87;;
5811;SDS011;2932;52.400;9.558;2023-02-28T17:32:54;2.67;;;1.77;;
5811;SDS011;2932;52.400;9.558;2023-02-28T17:35:21;3.27;;;1.97;;
5811;SDS011;2932;52.400;9.558;2023-02-28T17:37:46;4.03;;;2.17;;
5811;SDS011;2932;52.400;9.558;2023-02-28T17:40:13;2.90;;;1.80;;
5811;SDS011;2932;52.400;9.558;2023-02-28T17:42:40;3.73;;;1.97;;
5811;SDS011;2932;52.400;9.558;2023-02-28T17:45:05;3.63;;;2.37;;
5811;SDS011;2932;52.400;9.558;2023-02-28T17:47:31;4.20;;;2.20;;
5811;SDS011;2932;52.400;9.558;2023-02-28T17:49:56;21.13;;;12.53;;
5811;SDS011;2932;52.400;9.558;2023-02-28T17:52:21;30.70;;;18.67;;
5811;SDS011;2932;52.400;9.558;2023-02-28T17:54:47;8.80;;;5.53;;
5811;SDS011;2932;52.400;9.558;2023-02-28T17:57:14;3.80;;;2.70;;
5811;SDS011;2932;52.400;9.558;2023-02-28T17:59:41;4.63;;;2.50;;
5811;SDS011;2932;52.400;9.558;2023-02-28T18:02:07;5.30;;;3.20;;
5811;SDS011;2932;52.400;9.558;2023-02-28T18:04:34;5.97;;;3.57;;
5811;SDS011;2932;52.400;9.558;2023-02-28T18:07:00;8.47;;;3.90;;
5811;SDS011;2932;52.400;9.558;2023-02-28T18:09:25;6.10;;;3.90;;
5811;SDS011;2932;52.400;9.558;2023-02-28T18:11:52;8.67;;;4.60;;
5811;SDS011;2932;52.400;9.558;2023-02-28T18:14:20;10.17;;;4.80;;
5811;SDS011;2932;52.400;9.558;2023-02-28T18:16:48;7.37;;;3.60;;
5811;SDS011;2932;52.400;9.558;2023-02-28T18:19:14;5.70;;;3.20;;
5811;SDS011;2932;52.400;9.558;2023-02-28T18:21:41;9.33;;;4.10;;
5811;SDS011;2932;52.400;9.558;2023-02-28T18:24:08;12.10;;;4.17;;
5811;SDS011;2932;52.400;9.558;2023-02-28T18:26:33;6.53;;;3.50;;
5811;SDS011;2932;52.400;9.558;2023-02-28T18:29:00;6.57;;;4.03;;
5811;SDS011;2932;52.400;9.558;2023-02-28T18:31:25;9.20;;;4.77;;
5811;SDS011;2932;52.400;9.558;2023-02-28T18:33:51;11.57;;;5.57;;
5811;SDS011;2932;52.400;9.558;2023-02-28T18:36:18;11.67;;;5.20;;
5811;SDS011;2932;52.400;9.558;2023-02-28T18:38:45;9.47;;;4.70;;
5811;SDS011;2932;52.400;9.558;2023-02-28T18:41:11;9.37;;;5.23;;
5811;SDS011;2932;52.400;9.558;2023-02-28T18:43:36;11.23;;;6.03;;
5811;SDS011;2932;52.400;9.558;2023-02-28T18:46:03;22.53;;;12.73;;
5811;SDS011;2932;52.400;9.558;2023-02-28T18:48:32;43.73;;;24.30;;
5811;SDS011;2932;52.400;9.558;2023-02-28T18:50:58;33.63;;;20.97;;
5811;SDS011;2932;52.400;9.558;2023-02-28T18:53:23;21.30;;;11.80;;
5811;SDS011;2932;52.400;9.558;2023-02-28T18:55:48;17.20;;;9.90;;
5811;SDS011;2932;52.400;9.558;2023-02-28T18:58:14;14.97;;;9.63;;
5811;SDS011;2932;52.400;9.558;2023-02-28T19:00:39;16.80;;;10.47;;
5811;SDS011;2932;52.400;9.558;2023-02-28T19:03:05;17.60;;;11.83;;
5811;SDS011;2932;52.400;9.558;2023-02-28T19:05:30;23.53;;;13.37;;
5811;SDS011;2932;52.400;9.558;2023-02-28T19:07:58;13.80;;;9.20;;
5811;SDS011;2932;52.400;9.558;2023-02-28T19:10:24;7.97;;;6.30;;
5811;SDS011;2932;52.400;9.558;2023-02-28T19:12:50;9.10;;;5.97;;
5811;SDS011;2932;52.400;9.558;2023-02-28T19:15:15;10.80;;;6.70;;
5811;SDS011;2932;52.400;9.558;2023-02-28T19:17:40;11.07;;;6.93;;
5811;SDS011;2932;52.400;9.558;2023-02-28T19:20:06;7.87;;;5.90;;
5811;SDS011;2932;52.400;9.558;2023-02-28T19:22:33;11.03;;;7.03;;
5811;SDS011;2932;52.400;9.558;2023-02-28T19:24:58;11.87;;;6.30;;
5811;SDS011;2932;52.400;9.558;2023-02-28T19:27:23;13.43;;;5.90;;
5811;SDS011;2932;52.400;9.558;2023-02-28T19:29:49;10.37;;;6.03;;
5811;SDS011;2932;52.400;9.558;2023-02-28T19:32:16;10.73;;;6.63;;
5811;SDS011;2932;52.400;9.558;2023-02-28T19:34:43;10.47;;;6.50;;
5811;SDS011;2932;52.400;9.558;2023-02-28T19:37:09;9.30;;;6.30;;